Time;durP1;ratioP1;P1;durP2;ratioP2;P2;SDS_P1;SDS_P2;PMS_P1;PMS_P2;Temp;Humidity;BMP_temperature;BMP_pressure;BME280_temperature;BME280_humidity;BME280_pressure;Samples;Min_cycle;Max_cycle;Signal;HPM_P1;HPM_P2
2023/01/10 00:02:28;;;;;;;25.75;8.45;;;5.30;80.20;;;;;;4157972;28;20033;-89
2023/01/10 00:04:49;;;;;;;;;;;5.30;80.30;;;;;;4158159;28;20030;-90
2023/01/10 00:07:12;;;;;;;22.15;7.65;;;5.30;80.80;;;;;;4127633;28;19917;-90
2023/01/10 00:09:13;;;;;;;24.50;7.28;;;5.30;80.20;;;;;;4147060;28;20030;-88
2023/01/10 00:13:34;;;;;;;24.05;7.80;;;5.30;80.30;;;;;;4117203;28;20113;-89
2023/01/10 00:15:35;;;;;;;23.00;8.13;;;5.30;80.30;;;;;;4120499;28;20057;-88
2023/01/10 00:17:37;;;;;;;23.27;7.47;;;5.20;80.30;;;;;;4141348;28;20046;-89
2023/01/10 00:19:40;;;;;;;21.60;7.88;;;5.20;80.30;;;;;;4140197;28;20033;-90
2023/01/10 00:21:46;;;;;;;16.23;7.75;;;5.20;80.30;;;;;;4140374;28;20018;-90
2023/01/10 00:23:48;;;;;;;21.05;7.65;;;5.20;80.30;;;;;;4128032;28;20084;-90
2023/01/10 00:25:51;;;;;;;21.60;7.65;;;5.10;80.30;;;;;;4124919;28;20049;-90
2023/01/10 00:28:00;;;;;;;19.70;7.30;;;5.20;80.50;;;;;;4132677;28;20029;-89
2023/01/10 00:30:10;;;;;;;24.42;6.72;;;5.20;80.40;;;;;;4134425;28;20026;-90
2023/01/10 00:32:13;;;;;;;20.40;6.95;;;5.20;80.40;;;;;;4133173;28;20640;-91
2023/01/10 00:34:17;;;;;;;22.80;6.53;;;5.10;80.40;;;;;;4131706;28;20030;-91
2023/01/10 00:36:32;;;;;;;13.80;5.47;;;5.00;80.30;;;;;;4119444;28;20041;-91
2023/01/10 00:38:35;;;;;;;15.07;6.07;;;5.00;80.30;;;;;;4116965;28;20105;-93
2023/01/10 00:44:49;;;;;;;21.77;6.43;;;5.00;80.40;;;;;;4075592;29;20040;-92
2023/01/10 00:47:15;;;;;;;15.70;5.40;;;4.90;80.20;;;;;;4075130;29;20031;-91
2023/01/10 00:49:50;;;;;;;19.35;5.43;;;5.00;80.20;;;;;;4076048;29;20043;-93
2023/01/10 00:54:56;;;;;;;19.48;5.75;;;5.00;80.40;;;;;;4077302;29;20043;-92
2023/01/10 00:57:10;;;;;;;16.27;5.18;;;4.90;80.40;;;;;;4106401;23;20081;-87
2023/01/10 00:59:13;;;;;;;23.10;5.07;;;5.00;81.40;;;;;;4134109;28;20015;-86
2023/01/10 01:01:17;;;;;;;18.35;4.78;;;4.90;80.80;;;;;;4148565;28;20034;-87
2023/01/10 01:03:27;;;;;;;18.83;5.00;;;4.90;80.90;;;;;;4134185;28;20023;-87
2023/01/10 01:05:50;;;;;;;21.40;4.65;;;4.90;81.20;;;;;;4114839;28;20115;-87
2023/01/10 01:07:58;;;;;;;15.25;4.55;;;4.90;81.20;;;;;;4099104;28;20035;-87
2023/01/10 01:12:18;;;;;;;21.92;4.45;;;4.90;81.40;;;;;;4143448;28;20030;-87
2023/01/10 01:14:40;;;;;;;16.70;4.35;;;5.10;81.70;;;;;;4107746;28;20110;-87
2023/01/10 01:16:43;;;;;;;15.93;3.90;;;5.10;81.70;;;;;;4115383;28;20038;-87
2023/01/10 01:18:44;;;;;;;25.05;4.10;;;5.00;81.90;;;;;;4111825;28;20030;-87
2023/01/10 01:20:52;;;;;;;17.55;4.65;;;5.10;81.90;;;;;;4080274;29;20147;-87
2023/01/10 01:26:09;;;;;;;18.83;4.75;;;5.10;82.00;;;;;;4127909;28;20104;-87
2023/01/10 01:28:54;;;;;;;15.80;3.97;;;5.10;81.90;;;;;;4116394;28;20030;-86
2023/01/10 01:31:26;;;;;;;15.65;3.55;;;5.10;82.00;;;;;;4107037;28;20449;-87
2023/01/10 01:33:29;;;;;;;17.38;3.80;;;5.20;81.80;;;;;;4123284;28;20576;-86
2023/01/10 01:35:32;;;;;;;14.63;3.63;;;5.20;81.90;;;;;;4122582;28;20034;-87
2023/01/10 01:37:35;;;;;;;16.48;3.25;;;5.30;81.90;;;;;;4127482;28;20027;-87
2023/01/10 01:39:36;;;;;;;16.50;3.22;;;5.30;81.90;;;;;;4110470;28;20038;-87
2023/01/10 01:44:17;;;;;;;12.63;3.42;;;5.30;81.90;;;;;;4120678;28;20580;-87
2023/01/10 01:46:39;;;;;;;12.48;2.83;;;5.20;81.90;;;;;;4099114;28;20031;-87
2023/01/10 01:48:48;;;;;;;9.90;2.50;;;5.20;81.80;;;;;;4124486;28;20054;-88
2023/01/10 01:51:04;;;;;;;13.40;2.60;;;5.30;81.80;;;;;;4107699;28;20074;-86
2023/01/10 01:53:28;;;;;;;14.68;2.13;;;5.30;81.80;;;;;;4112303;28;20070;-86
2023/01/10 01:55:32;;;;;;;7.72;1.65;;;5.30;82.00;;;;;;4112104;28;20654;-86
2023/01/10 01:57:33;;;;;;;12.25;2.10;;;5.30;81.90;;;;;;4113773;28;20038;-86
2023/01/10 01:59:41;;;;;;;8.85;1.80;;;5.40;82.00;;;;;;4111294;28;20023;-86
2023/01/10 02:01:45;;;;;;;15.02;1.80;;;5.40;82.00;;;;;;4115960;28;20652;-86
2023/01/10 02:03:50;;;;;;;15.45;1.88;;;5.40;82.10;;;;;;4116764;28;20035;-86
2023/01/10 02:05:51;;;;;;;6.88;1.48;;;5.40;82.10;;;;;;4119476;28;20042;-85
2023/01/10 02:07:55;;;;;;;13.88;1.90;;;5.40;82.10;;;;;;4127258;28;20015;-87
2023/01/10 02:10:05;;;;;;;13.63;2.60;;;5.40;82.10;;;;;;4115878;28;20920;-85
2023/01/10 02:12:08;;;;;;;16.23;1.65;;;5.30;82.00;;;;;;4127492;28;20062;-85
2023/01/10 02:14:13;;;;;;;14.27;1.50;;;5.40;82.00;;;;;;4131059;28;20026;-87
2023/01/10 02:16:15;;;;;;;11.07;1.35;;;5.30;81.90;;;;;;4100666;28;20027;-88
2023/01/10 02:18:30;;;;;;;13.85;1.02;;;5.40;81.90;;;;;;4149514;28;20018;-87
2023/01/10 02:21:20;;;;;;;9.63;1.30;;;5.40;82.00;;;;;;4128814;28;20035;-89
2023/01/10 02:23:50;;;;;;;9.90;1.10;;;5.40;81.90;;;;;;4101088;28;20028;-88
2023/01/10 02:26:19;;;;;;;10.73;1.48;;;5.40;81.70;;;;;;4130488;28;20038;-86
2023/01/10 02:28:55;;;;;;;9.02;1.20;;;5.40;81.60;;;;;;4149183;28;20034;-86
2023/01/10 02:31:15;;;;;;;8.35;1.25;;;5.40;81.50;;;;;;4119077;28;20113;-86
2023/01/10 02:33:26;;;;;;;10.93;1.30;;;5.40;81.50;;;;;;4145293;28;20045;-87
2023/01/10 02:35:56;;;;;;;6.50;1.02;;;5.40;81.40;;;;;;4118234;28;20035;-87
2023/01/10 02:38:16;;;;;;;15.57;1.38;;;5.40;81.40;;;;;;4138873;28;20034;-87
2023/01/10 02:40:31;;;;;;;9.23;1.20;;;5.30;81.30;;;;;;4147953;28;20031;-87
2023/01/10 02:43:13;;;;;;;10.35;1.33;;;5.30;81.30;;;;;;4116226;28;20108;-88
2023/01/10 02:45:22;;;;;;;9.77;1.20;;;5.30;81.30;;;;;;4130703;28;20045;-88
2023/01/10 02:47:45;;;;;;;12.35;1.30;;;5.30;81.40;;;;;;4130894;28;20022;-87
2023/01/10 02:49:50;;;;;;;10.48;1.05;;;5.20;81.30;;;;;;4100003;29;20139;-87
2023/01/10 02:51:51;;;;;;;8.45;0.85;;;5.20;81.40;;;;;;4124425;28;20019;-87
2023/01/10 02:54:13;;;;;;;17.65;1.77;;;5.20;81.60;;;;;;4149964;28;20026;-86
2023/01/10 02:56:35;;;;;;;11.07;1.10;;;5.20;81.60;;;;;;4131909;28;20034;-88
2023/01/10 02:59:00;;;;;;;11.15;1.20;;;5.30;81.70;;;;;;4129519;28;20033;-88
2023/01/10 03:01:36;;;;;;;10.68;1.08;;;5.20;81.70;;;;;;4128411;28;20019;-87
2023/01/10 03:04:16;;;;;;;7.30;1.40;;;5.20;81.80;;;;;;4089109;28;20034;-86
2023/01/10 03:06:35;;;;;;;10.45;0.93;;;5.30;81.80;;;;;;4107999;28;20024;-86
2023/01/10 03:09:07;;;;;;;10.15;1.08;;;5.30;81.80;;;;;;4097770;29;20087;-87
2023/01/10 03:11:11;;;;;;;9.13;1.10;;;5.30;81.80;;;;;;4118040;28;20034;-87
2023/01/10 03:13:28;;;;;;;8.40;0.93;;;5.30;81.90;;;;;;4135792;28;20046;-88
2023/01/10 03:15:33;;;;;;;6.88;0.80;;;5.30;81.90;;;;;;4145188;28;20045;-88
2023/01/10 03:17:42;;;;;;;9.05;1.00;;;5.30;81.90;;;;;;4129908;28;20034;-88
2023/01/10 03:20:07;;;;;;;6.32;1.10;;;5.30;81.90;;;;;;4127014;28;20035;-88
2023/01/10 03:22:10;;;;;;;10.45;1.13;;;5.30;81.80;;;;;;4124713;28;20108;-88
2023/01/10 03:24:17;;;;;;;6.28;1.17;;;5.30;81.70;;;;;;4108354;28;20042;-88
2023/01/10 03:26:25;;;;;;;6.95;0.77;;;5.40;81.80;;;;;;4109068;28;20077;-87
2023/01/10 03:28:33;;;;;;;9.88;1.33;;;5.40;81.70;;;;;;4106230;28;20085;-88
2023/01/10 03:30:50;;;;;;;10.85;1.20;;;5.40;81.70;;;;;;4106267;28;20692;-88
2023/01/10 03:32:51;;;;;;;6.53;1.30;;;5.30;81.60;;;;;;4109066;28;20161;-86
2023/01/10 03:34:53;;;;;;;9.38;0.90;;;5.30;81.50;;;;;;4110824;28;20027;-86
2023/01/10 03:37:24;;;;;;;10.23;1.08;;;5.40;81.50;;;;;;4090107;28;20031;-86
2023/01/10 03:39:44;;;;;;;6.72;1.20;;;5.30;81.40;;;;;;4116194;28;20121;-87
2023/01/10 03:42:14;;;;;;;8.80;0.90;;;5.30;81.40;;;;;;4107834;28;20028;-87
2023/01/10 03:46:57;;;;;;;15.30;1.10;;;5.20;81.20;;;;;;4124028;28;20030;-87
2023/01/10 03:48:59;;;;;;;17.45;1.40;;;5.30;81.10;;;;;;4121240;28;20491;-87
2023/01/10 03:51:03;;;;;;;8.68;0.98;;;5.30;81.10;;;;;;4090957;28;20059;-86
2023/01/10 03:53:04;;;;;;;5.43;0.85;;;5.30;81.00;;;;;;4098243;28;20027;-86
2023/01/10 03:55:08;;;;;;;8.70;0.88;;;5.10;80.90;;;;;;4127959;28;20029;-87
2023/01/10 03:57:18;;;;;;;8.45;1.00;;;5.10;80.90;;;;;;4113008;28;20468;-87
2023/01/10 03:59:22;;;;;;;7.35;1.13;;;5.10;80.80;;;;;;4128727;28;20049;-87
2023/01/10 04:01:23;;;;;;;14.02;1.23;;;5.10;80.80;;;;;;4104094;28;20035;-87
2023/01/10 04:03:24;;;;;;;9.10;0.95;;;5.10;80.80;;;;;;4107475;28;20027;-87
2023/01/10 04:05:25;;;;;;;9.13;0.93;;;5.10;80.80;;;;;;4105088;28;20567;-86
2023/01/10 04:07:32;;;;;;;8.00;1.08;;;5.10;80.80;;;;;;4106343;28;20102;-87
2023/01/10 04:09:35;;;;;;;11.57;1.73;;;5.00;80.70;;;;;;4118181;28;20034;-86
2023/01/10 04:11:36;;;;;;;8.57;1.00;;;5.10;80.70;;;;;;4089045;28;20043;-87
2023/01/10 04:13:41;;;;;;;5.60;1.15;;;5.00;80.70;;;;;;4105562;28;20593;-87
2023/01/10 04:15:42;;;;;;;8.15;1.20;;;5.00;80.90;;;;;;4106788;28;20046;-86
2023/01/10 04:17:42;;;;;;;12.10;1.27;;;5.00;80.60;;;;;;4092328;28;20031;-86
2023/01/10 04:20:03;;;;;;;13.02;1.58;;;4.80;80.50;;;;;;4107800;28;20039;-87
2023/01/10 04:22:24;;;;;;;9.38;1.05;;;4.80;80.60;;;;;;4106098;28;20035;-86
2023/01/10 04:24:47;;;;;;;11.82;1.20;;;4.80;80.60;;;;;;4108143;28;20086;-86
2023/01/10 04:27:08;;;;;;;9.20;1.20;;;4.90;80.70;;;;;;4108031;28;20027;-86
2023/01/10 04:29:28;;;;;;;5.78;1.08;;;4.70;80.70;;;;;;4107792;28;20062;-87
2023/01/10 04:31:29;;;;;;;13.93;1.52;;;4.90;80.80;;;;;;4108342;28;20057;-87
2023/01/10 04:33:50;;;;;;;20.83;1.50;;;4.80;80.60;;;;;;4108326;28;20198;-87
2023/01/10 04:36:19;;;;;;;11.23;1.38;;;4.90;80.80;;;;;;4123549;28;20026;-87
2023/01/10 04:38:23;;;;;;;14.43;2.10;;;4.70;80.60;;;;;;4112605;28;20082;-87
2023/01/10 04:40:44;;;;;;;6.25;0.98;;;4.60;80.50;;;;;;4092685;28;20043;-88
2023/01/10 04:43:05;;;;;;;8.60;1.02;;;4.80;80.60;;;;;;4110943;28;20035;-87
2023/01/10 04:45:28;;;;;;;13.93;1.80;;;4.80;80.70;;;;;;4105702;28;20137;-86
2023/01/10 04:47:51;;;;;;;10.63;1.30;;;4.60;80.50;;;;;;4120125;28;20136;-87
2023/01/10 04:50:12;;;;;;;11.80;1.20;;;4.70;80.60;;;;;;4108719;28;20039;-86
2023/01/10 04:52:32;;;;;;;16.65;1.23;;;4.70;80.70;;;;;;4112042;28;20035;-86
2023/01/10 04:54:53;;;;;;;12.85;1.15;;;4.60;80.70;;;;;;4111351;28;20041;-87
2023/01/10 04:57:14;;;;;;;9.38;1.20;;;4.60;80.80;;;;;;4109292;28;20031;-86
2023/01/10 04:59:34;;;;;;;13.70;1.58;;;4.60;81.00;;;;;;4110135;28;20085;-86
2023/01/10 05:01:58;;;;;;;8.57;1.13;;;4.60;81.00;;;;;;4110881;28;20091;-86
2023/01/10 05:04:19;;;;;;;13.35;1.45;;;4.50;80.90;;;;;;4125512;28;20185;-86
2023/01/10 05:06:39;;;;;;;19.50;1.73;;;4.70;81.10;;;;;;4124181;28;20046;-86
2023/01/10 05:09:00;;;;;;;10.30;1.58;;;4.60;81.00;;;;;;4111623;28;20031;-86
2023/01/10 05:11:21;;;;;;;22.45;2.22;;;4.60;81.00;;;;;;4129942;28;20053;-87
2023/01/10 05:13:41;;;;;;;16.17;1.42;;;4.60;81.00;;;;;;4112761;28;20097;-86
2023/01/10 05:16:02;;;;;;;12.00;1.55;;;4.70;81.10;;;;;;4107670;28;20368;-87
2023/01/10 05:18:27;;;;;;;16.02;1.75;;;4.60;81.00;;;;;;4115058;28;20154;-86
2023/01/10 05:20:48;;;;;;;21.23;2.15;;;4.60;80.90;;;;;;4106599;28;20074;-85
2023/01/10 05:23:08;;;;;;;13.63;1.65;;;4.50;80.80;;;;;;4113455;28;20093;-86
2023/01/10 05:25:30;;;;;;;22.35;1.75;;;4.40;81.60;;;;;;4107688;28;20074;-87
2023/01/10 05:27:51;;;;;;;24.70;1.80;;;4.60;81.00;;;;;;4116699;28;20038;-86
2023/01/10 05:30:14;;;;;;;17.02;1.65;;;4.60;81.00;;;;;;4110137;28;20059;-87
2023/01/10 05:32:35;;;;;;;12.90;1.85;;;4.50;81.00;;;;;;4111689;28;20030;-86
2023/01/10 05:34:56;;;;;;;15.00;2.33;;;4.60;81.00;;;;;;4109075;28;20054;-86
2023/01/10 05:37:16;;;;;;;21.25;2.00;;;4.50;81.10;;;;;;4110718;28;20034;-87
2023/01/10 05:39:38;;;;;;;23.42;2.05;;;4.50;81.10;;;;;;4112410;28;20041;-86
2023/01/10 05:42:00;;;;;;;16.45;1.83;;;4.60;81.10;;;;;;4123449;28;20157;-87
2023/01/10 05:44:23;;;;;;;15.48;1.73;;;4.50;81.10;;;;;;4125755;28;20031;-86
2023/01/10 05:46:44;;;;;;;13.45;1.83;;;4.50;81.10;;;;;;4124688;28;20031;-86
2023/01/10 05:49:05;;;;;;;16.30;2.13;;;4.50;81.10;;;;;;4124067;28;20027;-84
2023/01/10 05:51:26;;;;;;;15.05;1.83;;;4.50;81.10;;;;;;4112840;28;20260;-85
2023/01/10 05:53:47;;;;;;;18.55;1.60;;;4.50;81.20;;;;;;4113717;28;20075;-85
2023/01/10 05:56:08;;;;;;;16.02;1.90;;;4.50;82.00;;;;;;4109791;28;20050;-85
2023/01/10 05:58:29;;;;;;;27.60;2.17;;;4.50;81.20;;;;;;4109655;28;20035;-85
2023/01/10 06:00:54;;;;;;;16.80;2.25;;;4.50;81.40;;;;;;4112766;28;20035;-86
2023/01/10 06:03:14;;;;;;;12.20;1.77;;;4.30;81.30;;;;;;4109847;28;20041;-85
2023/01/10 06:05:33;;;;;;;17.15;1.95;;;4.50;81.40;;;;;;4112933;28;20598;-86
2023/01/10 06:07:52;;;;;;;22.17;2.53;;;4.40;81.30;;;;;;4122643;28;20030;-85
2023/01/10 06:10:11;;;;;;;13.63;2.08;;;4.50;81.40;;;;;;4112713;28;20082;-85
2023/01/10 06:12:30;;;;;;;22.63;1.95;;;4.40;81.30;;;;;;4113621;28;20119;-86
2023/01/10 06:14:50;;;;;;;17.35;3.05;;;4.40;81.30;;;;;;4109566;28;20097;-86
2023/01/10 06:17:09;;;;;;;36.50;7.70;;;4.50;81.30;;;;;;4113674;28;20101;-86
2023/01/10 06:19:28;;;;;;;14.70;2.80;;;4.40;81.30;;;;;;4108958;28;20081;-86
2023/01/10 06:21:47;;;;;;;15.00;2.08;;;4.40;81.30;;;;;;4109826;28;20157;-87
2023/01/10 06:24:07;;;;;;;21.90;2.30;;;4.40;81.30;;;;;;4110907;28;20085;-86
2023/01/10 06:26:26;;;;;;;13.20;1.58;;;4.50;81.40;;;;;;4106158;28;20037;-86
2023/01/10 06:28:45;;;;;;;11.95;1.52;;;4.40;81.40;;;;;;4108552;28;20098;-87
2023/01/10 06:31:05;;;;;;;21.80;2.13;;;4.40;81.40;;;;;;4111176;28;20033;-86
2023/01/10 06:33:25;;;;;;;16.40;1.58;;;4.40;81.50;;;;;;4112071;28;20623;-86
2023/01/10 06:35:48;;;;;;;9.60;1.23;;;4.40;81.50;;;;;;4111467;28;20065;-86
2023/01/10 06:38:07;;;;;;;15.48;1.92;;;4.40;81.60;;;;;;4121818;28;20174;-86
2023/01/10 06:40:27;;;;;;;13.48;1.60;;;4.50;81.70;;;;;;4108386;28;20045;-86
2023/01/10 06:42:46;;;;;;;18.05;2.42;;;4.50;81.70;;;;;;4119381;28;20096;-86
2023/01/10 06:45:06;;;;;;;13.02;1.67;;;4.50;81.80;;;;;;4109165;28;20046;-86
2023/01/10 06:47:25;;;;;;;16.60;2.65;;;4.50;82.00;;;;;;4106617;28;20046;-85
2023/01/10 06:49:44;;;;;;;24.42;2.55;;;4.50;82.10;;;;;;4109255;28;20054;-87
2023/01/10 06:52:03;;;;;;;19.98;2.63;;;4.50;82.10;;;;;;4106379;28;20037;-86
2023/01/10 06:54:22;;;;;;;18.42;2.47;;;4.50;83.00;;;;;;4113414;28;20045;-86
2023/01/10 06:56:41;;;;;;;15.65;1.90;;;4.60;82.30;;;;;;4114491;28;20054;-86
2023/01/10 06:59:00;;;;;;;16.10;2.13;;;4.60;83.00;;;;;;4123802;28;20046;-86
2023/01/10 07:01:21;;;;;;;15.38;2.13;;;4.60;82.20;;;;;;4130841;28;20062;-86
2023/01/10 07:03:40;;;;;;;15.70;2.33;;;4.70;82.20;;;;;;4132013;28;20057;-86
2023/01/10 07:06:01;;;;;;;16.83;2.10;;;4.60;82.10;;;;;;4130572;28;20167;-86
2023/01/10 07:08:20;;;;;;;13.25;1.80;;;4.60;82.00;;;;;;4129497;28;20030;-86
2023/01/10 07:10:43;;;;;;;16.00;2.10;;;4.60;81.90;;;;;;4129336;28;20070;-85
2023/01/10 07:13:02;;;;;;;15.75;2.08;;;4.60;81.90;;;;;;4128877;28;20058;-86
2023/01/10 07:15:22;;;;;;;14.40;2.03;;;4.60;82.00;;;;;;4128465;28;20069;-86
2023/01/10 07:17:41;;;;;;;14.55;1.77;;;4.60;81.90;;;;;;4126802;28;20050;-86
2023/01/10 07:20:00;;;;;;;16.63;2.10;;;4.60;81.90;;;;;;4125757;28;20123;-85
2023/01/10 07:22:20;;;;;;;22.55;2.35;;;4.60;81.90;;;;;;4126882;28;20033;-85
2023/01/10 07:24:39;;;;;;;15.13;2.40;;;4.60;81.90;;;;;;4123346;28;20050;-84
2023/01/10 07:26:58;;;;;;;28.63;2.13;;;4.70;82.10;;;;;;4122668;28;20033;-86
2023/01/10 07:29:17;;;;;;;21.92;2.60;;;4.50;81.90;;;;;;4129161;28;20034;-86
2023/01/10 07:31:37;;;;;;;29.48;3.05;;;4.60;82.00;;;;;;4132918;28;20170;-85
2023/01/10 07:33:59;;;;;;;14.85;2.22;;;4.60;82.10;;;;;;4127448;28;20062;-86
2023/01/10 07:36:20;;;;;;;19.42;2.40;;;4.60;82.20;;;;;;4129063;28;20089;-86
2023/01/10 07:38:39;;;;;;;29.70;3.08;;;4.70;82.30;;;;;;4117807;28;20121;-85
2023/01/10 07:41:01;;;;;;;34.28;3.60;;;4.70;82.40;;;;;;4111061;28;20073;-85
2023/01/10 07:43:21;;;;;;;26.70;2.67;;;4.60;82.30;;;;;;4125430;28;20030;-85
2023/01/10 07:45:40;;;;;;;26.60;3.50;;;4.60;82.30;;;;;;4117190;28;20094;-86
2023/01/10 07:48:02;;;;;;;21.42;2.75;;;4.60;82.30;;;;;;4115386;28;20063;-85
2023/01/10 07:50:21;;;;;;;30.92;2.58;;;4.70;82.40;;;;;;4112503;28;20033;-86
2023/01/10 07:52:24;;;;;;;25.00;3.40;;;4.70;82.40;;;;;;4110882;28;20537;-85
2023/01/10 07:54:25;;;;;;;19.45;3.03;;;4.70;82.40;;;;;;4127419;28;20039;-85
2023/01/10 07:56:25;;;;;;;22.65;2.47;;;4.80;82.50;;;;;;4103990;28;20045;-86
2023/01/10 07:58:30;;;;;;;25.50;2.92;;;4.70;82.50;;;;;;4120857;28;20162;-86
2023/01/10 08:00:31;;;;;;;27.52;3.17;;;4.70;82.60;;;;;;4124284;28;20395;-86
2023/01/10 08:02:32;;;;;;;30.05;3.25;;;4.80;82.80;;;;;;4076299;29;20031;-86
2023/01/10 08:04:32;;;;;;;25.40;3.65;;;4.80;82.90;;;;;;4090955;28;20110;-86
2023/01/10 08:06:33;;;;;;;28.95;3.92;;;4.90;83.10;;;;;;4108605;28;20597;-85
2023/01/10 08:08:34;;;;;;;37.75;4.30;;;4.80;83.10;;;;;;4112782;28;20098;-85
2023/01/10 08:10:36;;;;;;;29.80;3.78;;;4.90;83.30;;;;;;4112952;28;20059;-86
2023/01/10 08:12:37;;;;;;;37.03;3.78;;;4.90;83.60;;;;;;4130906;28;20022;-85
2023/01/10 08:14:37;;;;;;;26.90;3.95;;;5.00;83.70;;;;;;4103683;28;20213;-85
2023/01/10 08:16:41;;;;;;;29.63;4.38;;;5.00;83.80;;;;;;4097981;28;20122;-85
2023/01/10 08:18:45;;;;;;;39.25;4.07;;;5.00;83.70;;;;;;4114211;28;20102;-86
2023/01/10 08:20:51;;;;;;;27.98;4.25;;;5.10;83.80;;;;;;4132775;28;20050;-84
2023/01/10 08:23:02;;;;;;;21.80;3.80;;;5.20;83.80;;;;;;4119074;28;20053;-86
2023/01/10 08:25:05;;;;;;;21.40;3.85;;;5.10;83.80;;;;;;4130727;28;20250;-86
2023/01/10 08:27:06;;;;;;;32.15;4.82;;;5.20;83.90;;;;;;4112841;28;20169;-85
2023/01/10 08:29:07;;;;;;;26.67;3.92;;;5.30;83.90;;;;;;4113797;28;20026;-85
2023/01/10 08:31:08;;;;;;;29.63;4.45;;;5.20;83.90;;;;;;4094308;28;20112;-86
2023/01/10 08:33:10;;;;;;;34.33;4.47;;;5.30;83.90;;;;;;4109979;28;20027;-85
2023/01/10 08:35:11;;;;;;;23.42;4.32;;;5.30;83.90;;;;;;4109831;28;20085;-86
2023/01/10 08:37:13;;;;;;;26.27;4.18;;;5.40;83.90;;;;;;4111971;28;20035;-86
2023/01/10 08:39:14;;;;;;;35.50;3.83;;;5.40;84.00;;;;;;4109773;28;20089;-85
2023/01/10 08:41:14;;;;;;;41.08;5.00;;;5.50;83.90;;;;;;4109947;28;20082;-86
2023/01/10 08:43:15;;;;;;;28.65;4.25;;;5.50;83.80;;;;;;4095798;28;20674;-85
2023/01/10 08:45:16;;;;;;;27.13;4.38;;;5.40;83.70;;;;;;4096209;28;20023;-85
2023/01/10 08:47:17;;;;;;;29.83;4.82;;;5.40;83.60;;;;;;4109303;28;20062;-86
2023/01/10 08:49:17;;;;;;;30.65;3.80;;;5.60;83.60;;;;;;4114027;28;20035;-86
2023/01/10 08:51:22;;;;;;;39.15;4.05;;;5.50;83.50;;;;;;4123307;28;20019;-85
2023/01/10 08:53:22;;;;;;;31.67;4.53;;;5.50;83.40;;;;;;4093383;28;20027;-85
2023/01/10 08:55:23;;;;;;;37.25;4.47;;;5.60;83.40;;;;;;4121728;28;20035;-86
2023/01/10 08:57:24;;;;;;;30.92;5.00;;;5.60;83.50;;;;;;4113101;28;20034;-85
2023/01/10 08:59:32;;;;;;;28.35;4.18;;;5.70;83.40;;;;;;4112397;28;20043;-87
2023/01/10 09:01:36;;;;;;;30.10;4.65;;;5.60;83.40;;;;;;4127186;28;20069;-86
2023/01/10 09:03:38;;;;;;;29.50;5.05;;;5.60;83.40;;;;;;4111467;28;20046;-86
2023/01/10 09:05:39;;;;;;;28.60;3.47;;;5.70;83.40;;;;;;4108517;28;20049;-86
2023/01/10 09:07:40;;;;;;;28.58;4.28;;;5.70;83.30;;;;;;4114271;28;20031;-86
2023/01/10 09:09:41;;;;;;;26.55;3.80;;;5.70;83.30;;;;;;4113260;28;20512;-86
2023/01/10 09:11:41;;;;;;;27.23;4.07;;;5.70;83.20;;;;;;4116347;28;20084;-85
2023/01/10 09:13:42;;;;;;;24.63;4.25;;;5.70;83.20;;;;;;4110172;28;20102;-86
2023/01/10 09:15:43;;;;;;;17.00;3.60;;;5.70;83.10;;;;;;4095551;28;20098;-86
2023/01/10 09:17:44;;;;;;;31.90;3.95;;;5.70;83.10;;;;;;4114787;28;20457;-86
2023/01/10 09:19:44;;;;;;;33.08;4.55;;;5.80;83.10;;;;;;4111699;28;20480;-86
2023/01/10 09:21:46;;;;;;;22.15;3.75;;;5.70;83.10;;;;;;4129548;28;20030;-88
2023/01/10 09:23:47;;;;;;;25.73;4.05;;;5.70;83.00;;;;;;4103397;28;20064;-87
2023/01/10 09:26:08;;;;;;;24.85;4.38;;;5.70;83.00;;;;;;4112381;28;20046;-86
2023/01/10 09:28:29;;;;;;;22.85;3.65;;;5.70;82.90;;;;;;4106766;28;20090;-85
2023/01/10 09:30:42;;;;;;;33.17;3.88;;;5.80;83.00;;;;;;4110906;28;20090;-87
2023/01/10 09:33:04;;;;;;;19.80;3.13;;;5.70;83.20;;;;;;4110784;28;20174;-87
2023/01/10 09:35:27;;;;;;;20.55;3.17;;;5.80;83.00;;;;;;4125418;28;20034;-87
2023/01/10 09:37:28;;;;;;;22.77;3.92;;;5.80;83.80;;;;;;4127837;28;20054;-87
2023/01/10 09:39:49;;;;;;;23.92;3.58;;;5.80;83.10;;;;;;4113310;28;20456;-86
2023/01/10 09:42:50;;;;;;;21.67;3.60;;;5.80;83.00;;;;;;4116898;28;20085;-87
2023/01/10 09:45:45;;;;;;;30.10;3.25;;;5.80;83.00;;;;;;4102819;28;20099;-87
2023/01/10 09:48:12;;;;;;;26.52;3.42;;;5.80;83.00;;;;;;4094666;28;20196;-87
2023/01/10 09:50:40;;;;;;;24.90;3.63;;;5.90;83.10;;;;;;4105191;28;20031;-86
2023/01/10 09:53:04;;;;;;;21.92;3.55;;;5.90;83.00;;;;;;4109940;28;20282;-87
2023/01/10 09:55:34;;;;;;;28.42;3.63;;;5.90;83.10;;;;;;4123219;28;20041;-86
2023/01/10 09:57:58;;;;;;;19.67;3.65;;;5.90;83.10;;;;;;4097239;28;20059;-87
2023/01/10 10:00:23;;;;;;;25.52;3.95;;;5.90;83.00;;;;;;4109006;28;20067;-87
2023/01/10 10:02:53;;;;;;;23.23;3.83;;;6.00;83.00;;;;;;4111243;28;20070;-87
2023/01/10 10:05:26;;;;;;;21.83;3.33;;;6.10;83.00;;;;;;4111728;28;20450;-87
2023/01/10 10:07:54;;;;;;;28.10;3.47;;;6.10;83.00;;;;;;4114620;28;20039;-87
2023/01/10 10:10:21;;;;;;;24.13;3.85;;;6.10;83.00;;;;;;4110484;28;20027;-87
2023/01/10 10:13:07;;;;;;;19.80;3.53;;;6.10;82.80;;;;;;4110160;28;20031;-86
2023/01/10 10:15:48;;;;;;;21.33;3.55;;;6.10;82.80;;;;;;4111435;28;20065;-87
2023/01/10 10:18:28;;;;;;;51.72;7.13;;;6.10;82.70;;;;;;4107081;28;20023;-88
2023/01/10 10:21:12;;;;;;;33.40;6.10;;;6.10;82.70;;;;;;4106781;28;20039;-87
2023/01/10 10:23:25;;;;;;;25.25;5.43;;;6.10;82.60;;;;;;4109791;28;20042;-87
2023/01/10 10:25:34;;;;;;;18.13;4.88;;;6.10;82.70;;;;;;4121897;28;20051;-86
2023/01/10 10:27:48;;;;;;;16.75;4.32;;;6.10;82.60;;;;;;4111349;28;20053;-87
2023/01/10 10:30:07;;;;;;;26.23;4.20;;;6.20;82.70;;;;;;4110597;28;20023;-87
2023/01/10 10:32:32;;;;;;;21.02;4.50;;;6.10;82.60;;;;;;4130534;28;20023;-87
2023/01/10 10:34:40;;;;;;;26.45;4.03;;;6.10;82.60;;;;;;4109984;28;20034;-87
2023/01/10 10:36:52;;;;;;;23.35;4.47;;;6.10;82.50;;;;;;4098678;28;20034;-84
2023/01/10 10:38:58;;;;;;;20.58;4.70;;;6.10;82.50;;;;;;4129953;28;20113;-85
2023/01/10 10:41:00;;;;;;;19.73;4.57;;;6.10;82.50;;;;;;4122714;28;20029;-85
2023/01/10 10:43:17;;;;;;;18.10;4.10;;;6.20;82.60;;;;;;4113024;28;20037;-85
2023/01/10 10:45:40;;;;;;;25.88;4.38;;;6.20;82.60;;;;;;4112037;28;20033;-84
2023/01/10 10:47:48;;;;;;;21.63;5.15;;;6.30;82.70;;;;;;4109626;28;20046;-85
2023/01/10 10:50:45;;;;;;;23.73;4.43;;;6.30;82.60;;;;;;4107994;28;20030;-85
2023/01/10 10:52:49;;;;;;;19.05;4.25;;;6.20;82.50;;;;;;4104887;28;20035;-85
2023/01/10 10:55:15;;;;;;;27.10;4.53;;;6.20;82.50;;;;;;4109104;28;20030;-86
2023/01/10 10:57:38;;;;;;;16.60;4.13;;;6.20;82.40;;;;;;4113266;28;20031;-86
2023/01/10 11:00:01;;;;;;;18.80;4.32;;;6.20;82.30;;;;;;4131113;28;20082;-85
2023/01/10 11:02:30;;;;;;;23.63;4.47;;;6.20;82.30;;;;;;4112071;28;20073;-86
2023/01/10 11:04:41;;;;;;;21.10;4.15;;;6.30;82.30;;;;;;4108846;28;20039;-85
2023/01/10 11:07:04;;;;;;;21.20;3.90;;;6.20;82.30;;;;;;4108502;28;20031;-87
2023/01/10 11:11:51;;;;;;;33.22;4.70;;;6.40;82.50;;;;;;4110714;28;20038;-86
2023/01/10 11:14:12;;;;;;;25.77;4.18;;;6.40;82.50;;;;;;4106759;28;20031;-86
2023/01/10 11:16:36;;;;;;;20.85;4.10;;;6.40;82.60;;;;;;4110418;28;20482;-86
2023/01/10 11:19:16;;;;;;;;;;;6.30;82.50;;;;;;4107101;28;20031;-86
2023/01/10 11:21:40;;;;;;;16.90;3.83;;;6.30;82.60;;;;;;4111383;28;19914;-87
2023/01/10 11:24:01;;;;;;;29.70;4.13;;;6.30;82.30;;;;;;4108425;28;20031;-86
2023/01/10 11:26:39;;;;;;;18.70;4.20;;;6.40;82.40;;;;;;4112513;28;20042;-86
2023/01/10 11:29:35;;;;;;;15.65;4.45;;;6.40;82.50;;;;;;4110821;28;20097;-86
2023/01/10 11:31:56;;;;;;;26.77;5.13;;;6.40;82.50;;;;;;4108977;28;20066;-85
2023/01/10 11:34:25;;;;;;;13.55;3.60;;;6.40;82.50;;;;;;4122189;28;20049;-85
2023/01/10 11:36:57;;;;;;;17.30;3.78;;;6.50;82.60;;;;;;4105421;28;20031;-85
2023/01/10 11:39:18;;;;;;;27.45;4.05;;;6.40;82.40;;;;;;4106580;28;20035;-86
2023/01/10 11:41:38;;;;;;;24.33;3.72;;;6.40;82.50;;;;;;4107392;28;20031;-86
2023/01/10 11:44:20;;;;;;;26.70;4.53;;;6.50;82.50;;;;;;4111613;28;20517;-87
2023/01/10 11:46:46;;;;;;;24.98;3.97;;;6.50;82.60;;;;;;4117678;28;20038;-86
2023/01/10 11:49:18;;;;;;;22.52;4.35;;;6.50;82.50;;;;;;4108653;28;20182;-85
2023/01/10 11:51:44;;;;;;;19.90;3.85;;;6.50;82.50;;;;;;4107340;28;20030;-85
2023/01/10 11:54:10;;;;;;;20.70;3.80;;;6.50;82.50;;;;;;4110571;28;20038;-87
2023/01/10 11:56:34;;;;;;;26.48;4.90;;;6.50;82.50;;;;;;4108248;28;20031;-86
2023/01/10 11:58:58;;;;;;;15.55;3.63;;;6.60;82.60;;;;;;4109365;28;20093;-86
2023/01/10 12:01:36;;;;;;;19.98;3.90;;;6.60;82.60;;;;;;4105131;28;20034;-86
2023/01/10 12:03:57;;;;;;;23.58;3.63;;;6.60;82.60;;;;;;4111401;28;20223;-85
2023/01/10 12:06:19;;;;;;;16.90;4.30;;;6.60;82.50;;;;;;4111869;28;20110;-85
2023/01/10 12:08:43;;;;;;;17.85;3.20;;;6.60;82.50;;;;;;4109132;28;20041;-86
2023/01/10 12:11:20;;;;;;;11.10;2.83;;;6.60;82.50;;;;;;4106360;28;20094;-85